createdAt,value
2022-08-14T00:01:02.254Z,8.65
2022-08-14T00:03:36.292Z,6.95
2022-08-14T00:06:02.619Z,7.30
2022-08-14T00:08:49.009Z,7.30
2022-08-14T00:11:15.892Z,7.45
2022-08-14T00:13:43.355Z,7.93
2022-08-14T00:16:41.499Z,8.00
2022-08-14T00:19:06.967Z,8.30
2022-08-14T00:21:45.259Z,8.27
2022-08-14T00:24:11.557Z,7.80
2022-08-14T00:26:39.161Z,8.10
2022-08-14T00:29:05.958Z,8.20
2022-08-14T00:34:35.516Z,8.35
2022-08-14T00:36:59.250Z,7.35
2022-08-14T00:39:25.853Z,8.02
2022-08-14T00:41:52.226Z,7.10
2022-08-14T00:44:27.630Z,7.95
2022-08-14T00:46:59.802Z,7.47
2022-08-14T00:49:28.658Z,8.57
2022-08-14T00:51:56.586Z,7.25
2022-08-14T00:54:24.562Z,7.95
2022-08-14T00:56:51.557Z,8.25
2022-08-14T00:59:23.217Z,8.20
2022-08-14T01:01:51.310Z,7.43
2022-08-14T01:04:38.139Z,7.85
2022-08-14T01:07:08.258Z,7.65
2022-08-14T01:09:35.470Z,8.68
2022-08-14T01:12:03.186Z,8.85
2022-08-14T01:16:56.143Z,7.22
2022-08-14T01:19:41.313Z,8.40
2022-08-14T01:22:07.836Z,7.45
2022-08-14T01:24:39.142Z,7.47
2022-08-14T01:27:07.172Z,8.52
2022-08-14T01:29:58.223Z,8.20
2022-08-14T01:32:24.062Z,7.63
2022-08-14T01:35:18.573Z,8.85
2022-08-14T01:37:38.257Z,7.70
2022-08-14T01:40:11.120Z,7.93
2022-08-14T01:42:37.488Z,8.38
2022-08-14T01:45:11.503Z,7.60
2022-08-14T01:47:38.818Z,8.15
2022-08-14T01:50:06.346Z,7.80
2022-08-14T01:52:34.178Z,7.97
2022-08-14T01:55:18.936Z,7.97
2022-08-14T01:57:49.386Z,8.13
2022-08-14T02:00:28.464Z,7.88
2022-08-14T02:02:58.122Z,8.00
2022-08-14T02:05:25.168Z,7.22
2022-08-14T02:07:55.784Z,7.63
2022-08-14T02:10:26.220Z,7.78
2022-08-14T02:12:56.897Z,7.93
2022-08-14T02:15:23.700Z,8.32
2022-08-14T02:17:49.999Z,7.43
2022-08-14T02:20:17.785Z,7.95
2022-08-14T02:22:52.001Z,8.00
2022-08-14T02:25:20.791Z,7.78
2022-08-14T02:28:23.644Z,7.32
2022-08-14T02:30:38.461Z,7.72
2022-08-14T02:33:05.553Z,7.43
2022-08-14T02:35:32.735Z,7.60
2022-08-14T02:37:59.518Z,7.53
2022-08-14T02:40:32.131Z,8.52
2022-08-14T02:43:00.718Z,7.82
2022-08-14T02:45:38.027Z,8.13
2022-08-14T02:49:01.293Z,7.80
2022-08-14T02:50:57.159Z,7.78
2022-08-14T02:53:27.330Z,8.10
2022-08-14T02:55:56.295Z,8.60
2022-08-14T02:58:30.308Z,8.13
2022-08-14T03:00:58.036Z,7.90
2022-08-14T03:03:25.042Z,8.95
2022-08-14T03:05:52.063Z,8.68
2022-08-14T03:08:20.735Z,9.15
2022-08-14T03:10:48.925Z,8.82
2022-08-14T03:13:20.864Z,9.38
2022-08-14T03:15:55.833Z,7.93
2022-08-14T03:18:31.938Z,8.57
2022-08-14T03:20:58.883Z,8.38
2022-08-14T03:23:25.380Z,7.93
2022-08-14T03:25:52.137Z,8.48
2022-08-14T03:28:33.378Z,9.38
2022-08-14T03:31:00.182Z,8.95
2022-08-14T03:33:27.818Z,9.27
2022-08-14T03:36:05.346Z,9.70
2022-08-14T03:39:14.043Z,8.15
2022-08-14T03:41:33.180Z,8.45
2022-08-14T03:45:25.439Z,9.13
2022-08-14T03:46:54.721Z,8.55
2022-08-14T03:49:28.350Z,8.43
2022-08-14T03:51:55.070Z,8.30
2022-08-14T03:54:21.390Z,8.73
2022-08-14T03:56:50.158Z,9.30
2022-08-14T03:59:18.077Z,8.88
2022-08-14T04:01:54.078Z,7.90
2022-08-14T04:04:27.963Z,8.75
2022-08-14T04:06:54.710Z,7.82
2022-08-14T04:09:26.659Z,8.27
2022-08-14T04:11:53.321Z,7.78
2022-08-14T04:14:20.065Z,8.25
2022-08-14T04:16:47.329Z,9.25
2022-08-14T04:19:15.900Z,8.80
2022-08-14T04:22:03.277Z,7.90
2022-08-14T04:24:29.188Z,9.07
2022-08-14T04:26:55.685Z,8.23
2022-08-14T04:29:22.049Z,8.05
2022-08-14T04:32:59.062Z,9.10
2022-08-14T04:34:42.027Z,8.63
2022-08-14T04:37:27.066Z,9.10
2022-08-14T04:40:15.121Z,9.40
2022-08-14T04:43:00.171Z,9.80
2022-08-14T04:45:29.710Z,8.57
2022-08-14T04:48:39.048Z,8.27
2022-08-14T04:51:01.252Z,8.98
2022-08-14T04:53:34.790Z,9.68
2022-08-14T04:56:02.091Z,9.27
2022-08-14T04:58:32.235Z,9.52
2022-08-14T05:00:59.455Z,9.18
2022-08-14T05:03:26.215Z,10.30
2022-08-14T05:05:54.419Z,9.45
2022-08-14T05:08:32.277Z,9.18
2022-08-14T05:11:07.130Z,11.35
2022-08-14T05:14:16.177Z,9.77
2022-08-14T05:16:29.197Z,9.65
2022-08-14T05:19:19.125Z,10.70
2022-08-14T05:21:57.236Z,8.77
2022-08-14T05:24:27.773Z,9.10
2022-08-14T05:26:54.175Z,10.65
2022-08-14T05:29:21.622Z,9.40
2022-08-14T05:31:47.959Z,10.90
2022-08-14T05:34:14.308Z,9.77
2022-08-14T05:36:42.456Z,9.38
2022-08-14T05:39:08.760Z,8.80
2022-08-14T05:41:52.376Z,8.73
2022-08-14T05:44:20.331Z,10.20
2022-08-14T05:46:46.649Z,9.88
2022-08-14T05:49:13.767Z,9.70
2022-08-14T05:51:41.094Z,9.15
2022-08-14T05:54:10.185Z,10.65
2022-08-14T05:56:39.648Z,9.82
2022-08-14T05:59:05.968Z,9.73
2022-08-14T06:01:33.788Z,9.85
2022-08-14T06:04:00.256Z,8.45
2022-08-14T06:06:26.611Z,8.82
2022-08-14T06:08:52.909Z,9.57
2022-08-14T06:11:27.839Z,9.35
2022-08-14T06:13:57.219Z,9.70
2022-08-14T06:16:23.521Z,8.98
2022-08-14T06:18:52.693Z,8.93
2022-08-14T06:21:19.532Z,8.40
2022-08-14T06:23:48.984Z,10.20
2022-08-14T06:26:15.443Z,9.23
2022-08-14T06:28:45.665Z,9.23
2022-08-14T06:31:12.038Z,9.63
2022-08-14T06:35:03.055Z,9.70
2022-08-14T06:36:24.757Z,9.25
2022-08-14T06:38:51.048Z,9.18
2022-08-14T06:41:20.746Z,9.38
2022-08-14T06:44:02.499Z,9.35
2022-08-14T06:46:34.368Z,9.43
2022-08-14T06:49:03.442Z,8.73
2022-08-14T06:51:38.802Z,9.65
2022-08-14T06:54:11.075Z,9.27
2022-08-14T06:56:38.266Z,9.43
2022-08-14T06:59:05.250Z,8.55
2022-08-14T07:01:50.228Z,9.02
2022-08-14T07:04:41.521Z,7.38
2022-08-14T07:07:07.818Z,8.35
2022-08-14T07:09:43.573Z,8.38
2022-08-14T07:12:56.112Z,8.50
2022-08-14T07:15:03.176Z,9.38
2022-08-14T07:17:32.050Z,9.82
2022-08-14T07:20:00.544Z,8.73
2022-08-14T07:22:33.017Z,8.05
2022-08-14T07:25:13.669Z,8.57
2022-08-14T07:27:40.772Z,9.30
2022-08-14T07:30:09.226Z,8.32
2022-08-14T07:32:55.349Z,8.63
2022-08-14T07:35:21.663Z,8.88
2022-08-14T07:37:49.963Z,9.00
2022-08-14T07:40:27.459Z,8.85
2022-08-14T07:42:56.148Z,9.02
2022-08-14T07:45:22.459Z,8.52
2022-08-14T07:47:48.772Z,9.38
2022-08-14T07:50:16.625Z,8.38
2022-08-14T07:52:46.623Z,8.93
2022-08-14T07:55:13.059Z,7.75
2022-08-14T07:57:40.040Z,9.30
2022-08-14T08:00:09.570Z,8.98
2022-08-14T08:02:57.106Z,9.65
2022-08-14T08:05:26.722Z,9.32
2022-08-14T08:07:53.045Z,9.30
2022-08-14T08:11:01.493Z,9.18
2022-08-14T08:13:17.832Z,11.40
2022-08-14T08:15:44.725Z,8.20
2022-08-14T08:18:27.790Z,8.88
2022-08-14T08:20:59.637Z,8.90
2022-08-14T08:23:40.015Z,9.63
2022-08-14T08:26:09.724Z,8.90
2022-08-14T08:28:36.020Z,9.15
2022-08-14T08:31:02.319Z,9.38
2022-08-14T08:33:32.023Z,8.52
2022-08-14T08:35:58.704Z,9.82
2022-08-14T08:39:18.146Z,10.02
2022-08-14T08:41:11.729Z,9.32
2022-08-14T08:43:38.295Z,8.13
2022-08-14T08:46:04.626Z,8.82
2022-08-14T08:48:31.643Z,9.20
2022-08-14T08:51:02.692Z,8.75
2022-08-14T08:53:32.043Z,8.00
2022-08-14T08:55:58.836Z,8.25
2022-08-14T08:58:25.662Z,8.07
2022-08-14T09:00:54.046Z,7.83
2022-08-14T09:03:21.487Z,8.32
2022-08-14T09:05:47.809Z,9.05
2022-08-14T09:10:59.348Z,8.57
2022-08-14T09:13:26.818Z,7.90
2022-08-14T09:15:56.811Z,8.10
2022-08-14T09:18:23.114Z,8.07
2022-08-14T09:20:49.500Z,7.82
2022-08-14T09:23:16.834Z,7.88
2022-08-14T09:26:00.464Z,7.22
2022-08-14T09:28:28.031Z,7.68
2022-08-14T09:30:54.847Z,7.20
2022-08-14T09:33:22.843Z,7.03
2022-08-14T09:35:49.705Z,6.57
2022-08-14T09:38:26.178Z,7.38
2022-08-14T09:40:53.708Z,7.18
2022-08-14T09:43:22.363Z,7.10
2022-08-14T09:45:53.511Z,7.38
2022-08-14T09:48:20.229Z,6.90
2022-08-14T09:50:54.086Z,7.05
2022-08-14T09:53:20.503Z,6.75
2022-08-14T09:55:47.074Z,7.07
2022-08-14T09:58:19.974Z,5.70
2022-08-14T10:00:49.295Z,5.28
2022-08-14T10:03:15.654Z,5.15
2022-08-14T10:05:42.029Z,5.13
2022-08-14T10:08:14.920Z,5.88
2022-08-14T10:10:41.782Z,5.78
2022-08-14T10:13:08.123Z,5.03
2022-08-14T10:15:35.707Z,5.70
2022-08-14T10:18:01.991Z,5.30
2022-08-14T10:20:40.670Z,4.53
2022-08-14T10:23:13.573Z,3.70
2022-08-14T10:25:43.471Z,4.88
2022-08-14T10:28:39.379Z,4.82
2022-08-14T10:30:56.056Z,4.28
2022-08-14T10:33:22.353Z,4.43
2022-08-14T10:35:48.810Z,4.18
2022-08-14T10:38:15.127Z,4.40
2022-08-14T10:40:52.225Z,4.28
2022-08-14T10:43:25.503Z,4.65
2022-08-14T10:45:59.640Z,4.77
2022-08-14T10:51:08.455Z,4.40
2022-08-14T10:53:37.026Z,5.25
2022-08-14T10:56:06.985Z,3.78
2022-08-14T10:58:48.919Z,4.13
2022-08-14T11:01:15.415Z,4.78
2022-08-14T11:03:56.979Z,4.72
2022-08-14T11:06:24.764Z,4.43
2022-08-14T11:08:52.044Z,4.80
2022-08-14T11:11:21.384Z,4.95
2022-08-14T11:13:48.555Z,4.70
2022-08-14T11:16:18.216Z,4.35
2022-08-14T11:18:46.223Z,3.92
2022-08-14T11:21:18.552Z,4.05
2022-08-14T11:23:49.250Z,4.38
2022-08-14T11:26:19.972Z,4.97
2022-08-14T11:28:48.709Z,4.70
2022-08-14T11:31:16.686Z,4.68
2022-08-14T11:33:43.111Z,4.60
2022-08-14T11:36:17.738Z,4.57
2022-08-14T11:38:48.204Z,4.63
2022-08-14T11:41:17.154Z,4.28
2022-08-14T11:43:46.866Z,4.53
2022-08-14T11:46:30.451Z,4.68
2022-08-14T11:49:05.423Z,4.32
2022-08-14T11:51:36.100Z,4.63
2022-08-14T11:54:19.631Z,3.92
2022-08-14T11:56:49.811Z,3.75
2022-08-14T11:59:17.918Z,4.35
2022-08-14T12:01:46.212Z,4.55
2022-08-14T12:04:32.209Z,4.53
2022-08-14T12:07:01.064Z,4.65
2022-08-14T12:09:27.912Z,5.65
2022-08-14T12:11:54.210Z,5.70
2022-08-14T12:14:30.211Z,5.82
2022-08-14T12:17:01.936Z,5.50
2022-08-14T12:19:28.622Z,5.53
2022-08-14T12:21:59.897Z,5.93
2022-08-14T12:24:35.737Z,5.32
2022-08-14T12:27:03.407Z,5.25
2022-08-14T12:29:29.748Z,4.97
2022-08-14T12:31:58.445Z,6.25
2022-08-14T12:34:26.129Z,5.22
2022-08-14T12:36:52.433Z,6.00
2022-08-14T12:39:18.778Z,5.45
2022-08-14T12:41:45.796Z,5.97
2022-08-14T12:44:21.504Z,5.00
2022-08-14T12:46:49.061Z,5.70
2022-08-14T12:49:16.961Z,5.00
2022-08-14T12:51:44.054Z,5.25
2022-08-14T12:54:18.565Z,5.95
2022-08-14T12:56:54.182Z,5.25
2022-08-14T12:59:20.620Z,5.15
2022-08-14T13:04:31.171Z,5.28
2022-08-14T13:06:57.450Z,4.40
2022-08-14T13:09:35.814Z,4.65
2022-08-14T13:12:34.833Z,5.18
2022-08-14T13:14:52.768Z,5.07
2022-08-14T13:17:18.994Z,5.40
2022-08-14T13:19:45.622Z,5.10
2022-08-14T13:22:28.879Z,6.72
2022-08-14T13:24:58.274Z,5.57
2022-08-14T13:27:24.650Z,5.57
2022-08-14T13:29:53.762Z,5.85
2022-08-14T13:32:20.059Z,5.57
2022-08-14T13:34:46.859Z,6.20
2022-08-14T13:37:14.171Z,5.20
2022-08-14T13:39:40.639Z,5.90
2022-08-14T13:42:13.423Z,5.35
2022-08-14T13:44:42.612Z,6.22
2022-08-14T13:47:09.527Z,5.07
2022-08-14T13:49:37.406Z,5.68
2022-08-14T13:52:04.245Z,5.07
2022-08-14T13:59:37.992Z,5.57
2022-08-14T14:02:05.069Z,5.07
2022-08-14T14:04:31.474Z,5.30
2022-08-14T14:06:58.711Z,5.15
2022-08-14T14:09:25.434Z,5.00
2022-08-14T14:11:52.794Z,5.40
2022-08-14T14:14:29.789Z,5.30
2022-08-14T14:17:05.757Z,5.20
2022-08-14T14:22:01.530Z,5.18
2022-08-14T14:24:34.547Z,5.18
2022-08-14T14:27:09.686Z,5.75
2022-08-14T14:29:50.728Z,5.90
2022-08-14T14:32:22.289Z,5.45
2022-08-14T14:34:48.578Z,5.23
2022-08-14T14:37:15.391Z,5.28
2022-08-14T14:40:52.591Z,5.60
2022-08-14T14:42:32.060Z,6.23
2022-08-14T14:44:58.936Z,6.35
2022-08-14T14:47:25.476Z,5.90
2022-08-14T14:49:55.220Z,5.18
2022-08-14T14:52:26.891Z,5.20
2022-08-14T14:54:54.238Z,5.63
2022-08-14T14:57:21.057Z,5.45
2022-08-14T14:59:47.881Z,6.07
2022-08-14T15:02:16.486Z,5.30
2022-08-14T15:04:44.315Z,5.45
2022-08-14T15:07:10.678Z,5.82
2022-08-14T15:09:38.978Z,6.38
2022-08-14T15:12:34.292Z,5.05
2022-08-14T15:14:55.328Z,5.70
2022-08-14T15:17:23.785Z,5.40
2022-08-14T15:19:56.364Z,6.20
2022-08-14T15:22:25.197Z,5.00
2022-08-14T15:24:51.746Z,5.35
2022-08-14T15:27:26.298Z,5.80
2022-08-14T15:29:53.207Z,6.22
2022-08-14T15:32:23.027Z,6.30
2022-08-14T15:34:51.801Z,6.05
2022-08-14T15:37:19.395Z,5.35
2022-08-14T15:39:45.766Z,5.05
2022-08-14T15:42:15.794Z,4.95
2022-08-14T15:44:44.720Z,5.15
2022-08-14T15:47:28.167Z,5.50
2022-08-14T15:49:59.192Z,4.97
2022-08-14T15:52:32.996Z,4.85
2022-08-14T15:55:02.792Z,4.50
2022-08-14T15:57:30.655Z,5.32
2022-08-14T16:00:39.963Z,5.25
2022-08-14T16:03:03.082Z,6.00
2022-08-14T16:05:29.401Z,5.47
2022-08-14T16:08:05.007Z,5.30
2022-08-14T16:10:51.207Z,5.57
2022-08-14T16:13:22.925Z,5.80
2022-08-14T16:16:49.204Z,4.57
2022-08-14T16:18:51.370Z,4.85
2022-08-14T16:21:17.662Z,4.78
2022-08-14T16:23:46.960Z,4.90
2022-08-14T16:26:20.401Z,5.72
2022-08-14T16:29:02.516Z,6.00
2022-08-14T16:34:46.802Z,5.93
2022-08-14T16:37:03.090Z,4.93
2022-08-14T16:39:29.469Z,5.18
2022-08-14T16:41:59.222Z,5.30
2022-08-14T16:44:32.013Z,5.13
2022-08-14T16:47:00.250Z,4.97
2022-08-14T16:50:02.941Z,4.82
2022-08-14T16:52:25.434Z,5.57
2022-08-14T16:55:00.074Z,4.57
2022-08-14T16:57:26.406Z,5.28
2022-08-14T16:59:58.894Z,5.03
2022-08-14T17:02:25.499Z,4.80
2022-08-14T17:04:52.726Z,5.30
2022-08-14T17:07:19.957Z,5.28
2022-08-14T17:09:53.077Z,5.47
2022-08-14T17:12:33.989Z,5.63
2022-08-14T17:15:09.867Z,5.23
2022-08-14T17:17:37.327Z,5.30
2022-08-14T17:20:25.049Z,4.93
2022-08-14T17:22:51.800Z,5.43
2022-08-14T17:25:18.256Z,4.88
2022-08-14T17:27:49.301Z,5.97
2022-08-14T17:30:31.819Z,5.07
2022-08-14T17:33:03.319Z,5.28
2022-08-14T17:35:58.652Z,5.25
2022-08-14T17:38:38.735Z,5.75
2022-08-14T17:41:21.866Z,5.18
2022-08-14T17:46:23.824Z,5.88
2022-08-14T17:49:14.295Z,5.22
2022-08-14T17:51:38.530Z,6.00
2022-08-14T17:54:22.792Z,5.05
2022-08-14T17:57:01.362Z,5.70
2022-08-14T17:59:27.659Z,5.88
2022-08-14T18:01:54.614Z,5.55
2022-08-14T18:04:28.797Z,5.32
2022-08-14T18:07:16.114Z,5.70
2022-08-14T18:09:57.201Z,5.35
2022-08-14T18:12:31.985Z,5.53
2022-08-14T18:15:01.264Z,5.60
2022-08-14T18:17:35.640Z,5.75
2022-08-14T18:20:02.300Z,5.90
2022-08-14T18:22:49.654Z,6.18
2022-08-14T18:25:19.199Z,6.53
2022-08-14T18:27:49.138Z,5.63
2022-08-14T18:30:31.987Z,6.43
2022-08-14T18:33:04.106Z,6.38
2022-08-14T18:35:45.638Z,5.95
2022-08-14T18:38:26.429Z,6.13
2022-08-14T18:40:58.998Z,6.03
2022-08-14T18:43:25.311Z,5.78
2022-08-14T18:45:52.131Z,5.97
2022-08-14T18:48:19.063Z,6.22
2022-08-14T18:50:45.644Z,6.28
2022-08-14T18:53:12.795Z,7.03
2022-08-14T18:55:53.135Z,6.10
2022-08-14T18:58:29.597Z,5.70
2022-08-14T19:00:58.923Z,6.45
2022-08-14T19:03:29.107Z,5.55
2022-08-14T19:05:55.400Z,6.00
2022-08-14T19:08:25.215Z,6.55
2022-08-14T19:10:51.697Z,6.35
2022-08-14T19:13:20.402Z,6.05
2022-08-14T19:15:56.563Z,5.80
2022-08-14T19:18:26.729Z,5.65
2022-08-14T19:20:55.336Z,5.57
2022-08-14T19:23:43.886Z,6.28
2022-08-14T19:26:36.820Z,6.15
2022-08-14T19:28:58.377Z,5.68
2022-08-14T19:34:08.999Z,5.25
2022-08-14T19:36:55.454Z,6.53
2022-08-14T19:39:21.967Z,6.22
2022-08-14T19:41:51.787Z,5.97
2022-08-14T19:44:19.184Z,5.90
2022-08-14T19:46:59.711Z,7.32
2022-08-14T19:50:08.617Z,6.10
2022-08-14T19:52:17.574Z,6.00
2022-08-14T19:54:47.358Z,5.80
2022-08-14T19:57:13.656Z,6.55
2022-08-14T19:59:57.255Z,6.65
2022-08-14T20:02:25.156Z,7.28
2022-08-14T20:04:57.675Z,7.15
2022-08-14T20:11:05.840Z,5.95
2022-08-14T20:12:57.753Z,6.78
2022-08-14T20:15:24.516Z,6.78
2022-08-14T20:17:52.680Z,7.10
2022-08-14T20:20:21.028Z,7.00
2022-08-14T20:22:58.653Z,7.13
2022-08-14T20:25:28.285Z,6.45
2022-08-14T20:27:59.895Z,6.68
2022-08-14T20:30:33.037Z,6.50
2022-08-14T20:33:01.471Z,6.50
2022-08-14T20:35:35.210Z,6.25
2022-08-14T20:38:30.252Z,6.03
2022-08-14T20:40:50.829Z,6.53
2022-08-14T20:43:35.759Z,6.47
2022-08-14T21:00:33.784Z,6.33
2022-08-14T21:03:00.866Z,6.43
2022-08-14T21:05:33.735Z,7.07
2022-08-14T21:08:08.471Z,7.15
2022-08-14T21:10:47.064Z,7.43
2022-08-14T21:13:52.611Z,6.80
2022-08-14T21:16:03.710Z,6.82
2022-08-14T21:18:30.605Z,6.73
2022-08-14T21:20:58.119Z,6.68
2022-08-14T21:23:24.447Z,6.85
2022-08-14T21:25:53.896Z,6.60
2022-08-14T21:28:30.632Z,7.43
2022-08-14T21:31:01.901Z,5.97
2022-08-14T21:33:28.830Z,7.10
2022-08-14T21:35:55.822Z,6.82
2022-08-14T21:38:22.250Z,7.13
2022-08-14T21:41:01.082Z,7.63
2022-08-14T21:43:27.379Z,6.82
2022-08-14T21:45:57.553Z,6.88
2022-08-14T21:48:25.216Z,6.63
2022-08-14T21:51:01.015Z,7.43
2022-08-14T21:53:58.358Z,6.90
2022-08-14T21:56:37.322Z,6.45
2022-08-14T21:59:05.949Z,6.85
2022-08-14T22:02:01.218Z,6.57
2022-08-14T22:04:33.637Z,6.82
2022-08-14T22:07:01.039Z,6.80
2022-08-14T22:09:36.137Z,6.38
2022-08-14T22:12:03.208Z,7.70
2022-08-14T22:14:33.312Z,7.55
2022-08-14T22:17:12.969Z,7.03
2022-08-14T22:19:47.310Z,6.53
2022-08-14T22:22:21.512Z,6.97
2022-08-14T22:24:54.086Z,6.45
2022-08-14T22:27:27.348Z,7.03
2022-08-14T22:29:58.627Z,7.63
2022-08-14T22:32:35.183Z,6.75
2022-08-14T22:35:11.307Z,6.68
2022-08-14T22:37:39.582Z,7.20
2022-08-14T22:40:54.605Z,7.65
2022-08-14T22:43:00.399Z,7.07
2022-08-14T22:45:36.522Z,7.40
2022-08-14T22:48:05.037Z,7.38
2022-08-14T22:50:33.563Z,7.55
2022-08-14T22:53:00.252Z,7.00
2022-08-14T22:55:27.326Z,7.63
2022-08-14T22:57:53.546Z,7.55
2022-08-14T23:00:20.420Z,7.53
2022-08-14T23:02:57.248Z,7.30
2022-08-14T23:05:24.329Z,7.68
2022-08-14T23:08:56.466Z,7.50
2022-08-14T23:10:52.941Z,7.13
2022-08-14T23:13:20.108Z,7.72
2022-08-14T23:15:47.125Z,8.82
2022-08-14T23:18:13.461Z,6.80
2022-08-14T23:20:42.301Z,7.78
2022-08-14T23:23:10.680Z,7.45
2022-08-14T23:25:57.978Z,7.47
2022-08-14T23:28:34.445Z,7.55
2022-08-14T23:31:10.145Z,7.50
2022-08-14T23:33:36.451Z,7.50
2022-08-14T23:36:32.783Z,7.85
2022-08-14T23:39:00.183Z,6.97
2022-08-14T23:41:26.496Z,6.60
2022-08-14T23:44:12.783Z,7.15
2022-08-14T23:46:39.588Z,6.95
2022-08-14T23:49:05.963Z,7.75
2022-08-14T23:51:36.325Z,7.28
2022-08-14T23:54:02.989Z,6.95
2022-08-14T23:56:31.832Z,7.22
2022-08-14T23:58:58.720Z,7.07
